createdAt,value
2022-11-27T00:00:29.253Z,25.33
2022-11-27T00:02:55.705Z,23.98
2022-11-27T00:05:22.167Z,24.08
2022-11-27T00:07:48.593Z,23.73
2022-11-27T00:10:15.008Z,22.80
2022-11-27T00:12:41.351Z,22.27
2022-11-27T00:15:08.063Z,23.30
2022-11-27T00:17:34.433Z,22.70
2022-11-27T00:20:00.820Z,22.65
2022-11-27T00:22:27.334Z,22.88
2022-11-27T00:24:53.766Z,23.75
2022-11-27T00:27:20.131Z,22.38
2022-11-27T00:29:46.488Z,22.10
2022-11-27T00:32:12.862Z,24.63
2022-11-27T00:34:39.389Z,23.00
2022-11-27T00:37:05.925Z,23.05
2022-11-27T00:39:32.375Z,23.00
2022-11-27T00:41:58.755Z,22.80
2022-11-27T00:44:25.351Z,23.83
2022-11-27T00:46:51.840Z,21.15
2022-11-27T00:49:18.437Z,22.13
2022-11-27T00:51:44.775Z,22.65
2022-11-27T00:54:11.180Z,19.80
2022-11-27T00:56:39.146Z,18.48
2022-11-27T00:59:06.909Z,18.85
2022-11-27T01:01:42.166Z,18.35
2022-11-27T01:04:13.571Z,18.67
2022-11-27T01:06:40.935Z,16.67
2022-11-27T01:09:08.198Z,16.23
2022-11-27T01:11:36.348Z,15.82
2022-11-27T01:14:06.810Z,14.23
2022-11-27T01:16:33.757Z,16.40
2022-11-27T01:19:01.716Z,14.68
2022-11-27T01:21:30.678Z,14.15
2022-11-27T01:23:57.203Z,14.32
2022-11-27T01:26:24.136Z,14.57
2022-11-27T01:28:55.434Z,14.63
2022-11-27T01:31:24.945Z,13.73
2022-11-27T01:33:57.108Z,13.43
2022-11-27T01:36:24.046Z,13.98
2022-11-27T01:38:50.828Z,13.85
2022-11-27T01:41:22.043Z,12.98
2022-11-27T01:44:02.851Z,12.15
2022-11-27T01:46:35.207Z,12.70
2022-11-27T01:49:10.672Z,12.57
2022-11-27T01:52:03.795Z,13.52
2022-11-27T01:54:58.282Z,12.90
2022-11-27T01:57:33.498Z,14.18
2022-11-27T02:00:01.377Z,14.73
2022-11-27T02:02:28.143Z,14.35
2022-11-27T02:04:55.406Z,13.80
2022-11-27T02:07:21.999Z,15.38
2022-11-27T02:09:48.441Z,14.50
2022-11-27T02:12:26.586Z,14.52
2022-11-27T02:15:10.566Z,15.00
2022-11-27T02:17:48.805Z,15.27
2022-11-27T02:20:23.953Z,15.35
2022-11-27T02:23:14.932Z,15.15
2022-11-27T02:26:03.166Z,15.27
2022-11-27T02:28:53.341Z,16.33
2022-11-27T02:31:34.240Z,16.23
2022-11-27T02:34:28.434Z,16.98
2022-11-27T02:37:02.730Z,17.38
2022-11-27T02:39:37.398Z,17.90
2022-11-27T02:42:16.809Z,17.55
2022-11-27T02:44:48.701Z,17.63
2022-11-27T02:47:15.353Z,17.33
2022-11-27T02:49:44.051Z,16.98
2022-11-27T02:52:12.342Z,18.30
2022-11-27T02:54:40.841Z,19.38
2022-11-27T02:57:09.855Z,20.05
2022-11-27T02:59:37.366Z,20.50
2022-11-27T03:02:11.939Z,20.42
2022-11-27T03:04:45.645Z,21.23
2022-11-27T03:07:21.614Z,21.63
2022-11-27T03:09:52.624Z,21.83
2022-11-27T03:12:19.404Z,21.58
2022-11-27T03:14:48.032Z,21.08
2022-11-27T03:17:46.357Z,19.42
2022-11-27T03:20:15.668Z,21.42
2022-11-27T03:22:42.927Z,19.33
2022-11-27T03:25:09.598Z,19.90
2022-11-27T03:27:46.878Z,19.23
2022-11-27T03:30:13.587Z,19.45
2022-11-27T03:32:40.150Z,18.92
2022-11-27T03:35:10.547Z,19.23
2022-11-27T03:37:37.294Z,19.25
2022-11-27T03:40:05.631Z,19.30
2022-11-27T03:42:50.724Z,18.95
2022-11-27T03:45:27.959Z,19.20
2022-11-27T03:48:13.511Z,19.10
2022-11-27T03:51:07.362Z,19.60
2022-11-27T03:53:55.464Z,18.90
2022-11-27T03:56:36.033Z,19.33
2022-11-27T03:59:10.783Z,19.83
2022-11-27T04:01:37.365Z,18.80
2022-11-27T04:04:03.876Z,19.17
2022-11-27T04:06:30.284Z,19.67
2022-11-27T04:08:57.471Z,18.92
2022-11-27T04:11:23.826Z,18.85
2022-11-27T04:13:50.200Z,19.55
2022-11-27T04:16:16.668Z,20.90
2022-11-27T04:18:43.012Z,20.17
2022-11-27T04:21:09.621Z,19.90
2022-11-27T04:23:35.998Z,20.40
2022-11-27T04:26:02.343Z,20.13
2022-11-27T04:28:28.801Z,18.63
2022-11-27T04:30:55.168Z,20.40
2022-11-27T04:33:22.249Z,19.70
2022-11-27T04:35:49.549Z,22.83
2022-11-27T04:38:16.099Z,20.67
2022-11-27T04:40:42.534Z,20.80
2022-11-27T04:43:09.088Z,19.52
2022-11-27T04:45:35.659Z,19.83
2022-11-27T04:48:02.206Z,20.00
2022-11-27T04:50:29.756Z,20.98
2022-11-27T04:52:56.134Z,20.60
2022-11-27T04:55:22.867Z,21.30
2022-11-27T04:57:49.388Z,19.85
2022-11-27T05:00:16.063Z,19.85
2022-11-27T05:02:42.546Z,20.33
2022-11-27T05:05:09.077Z,20.50
2022-11-27T05:07:35.567Z,20.40
2022-11-27T05:10:02.196Z,20.42
2022-11-27T05:12:28.583Z,20.70
2022-11-27T05:14:54.947Z,21.58
2022-11-27T05:17:21.403Z,21.58
2022-11-27T05:19:47.774Z,22.23
2022-11-27T05:22:14.174Z,20.40
2022-11-27T05:24:40.858Z,20.35
2022-11-27T05:27:07.616Z,20.70
2022-11-27T05:29:33.981Z,21.52
2022-11-27T05:32:00.420Z,20.42
2022-11-27T05:34:26.881Z,20.25
2022-11-27T05:36:53.279Z,21.73
2022-11-27T05:39:19.670Z,20.33
2022-11-27T05:41:46.067Z,20.40
2022-11-27T05:44:13.882Z,20.75
2022-11-27T05:46:40.430Z,19.90
2022-11-27T05:49:06.850Z,20.77
2022-11-27T05:51:33.236Z,20.40
2022-11-27T05:53:59.622Z,19.80
2022-11-27T05:56:26.005Z,21.08
2022-11-27T05:58:52.477Z,19.77
2022-11-27T06:01:19.584Z,19.70
2022-11-27T06:03:46.079Z,20.20
2022-11-27T06:06:16.095Z,19.50
2022-11-27T06:08:43.093Z,18.70
2022-11-27T06:11:15.931Z,17.83
2022-11-27T06:13:42.380Z,19.50
2022-11-27T06:16:12.357Z,19.98
2022-11-27T06:18:39.321Z,20.58
2022-11-27T06:21:08.313Z,19.33
2022-11-27T06:23:35.039Z,20.02
2022-11-27T06:26:19.350Z,19.10
2022-11-27T06:28:47.054Z,18.30
2022-11-27T06:31:18.319Z,18.10
2022-11-27T06:33:46.314Z,18.05
2022-11-27T06:36:12.880Z,18.45
2022-11-27T06:38:39.293Z,18.77
2022-11-27T06:41:08.232Z,19.20
2022-11-27T06:43:35.142Z,19.70
2022-11-27T06:46:02.944Z,17.85
2022-11-27T06:48:29.389Z,18.55
2022-11-27T06:51:00.114Z,18.85
2022-11-27T06:53:26.523Z,17.33
2022-11-27T06:55:52.897Z,17.20
2022-11-27T06:58:19.302Z,17.35
2022-11-27T07:00:45.782Z,17.63
2022-11-27T07:03:12.161Z,19.05
2022-11-27T07:05:38.531Z,16.88
2022-11-27T07:08:05.220Z,18.23
2022-11-27T07:10:36.798Z,16.75
2022-11-27T07:13:03.179Z,16.85
2022-11-27T07:15:29.611Z,17.00
2022-11-27T07:17:56.010Z,16.40
2022-11-27T07:20:22.617Z,17.48
2022-11-27T07:22:49.071Z,17.77
2022-11-27T07:25:15.507Z,18.15
2022-11-27T07:27:41.906Z,17.05
2022-11-27T07:30:08.723Z,18.77
2022-11-27T07:32:35.083Z,16.55
2022-11-27T07:35:01.433Z,16.88
2022-11-27T07:37:30.999Z,18.27
2022-11-27T07:42:38.083Z,17.73
2022-11-27T07:45:05.833Z,18.30
2022-11-27T07:47:32.212Z,18.52
2022-11-27T07:49:58.573Z,17.73
2022-11-27T07:52:24.927Z,19.63
2022-11-27T07:54:51.279Z,19.40
2022-11-27T07:57:17.659Z,18.45
2022-11-27T07:59:47.316Z,18.38
2022-11-27T08:02:14.868Z,18.73
2022-11-27T08:04:41.844Z,18.23
2022-11-27T08:07:08.464Z,19.25
2022-11-27T08:09:34.809Z,17.02
2022-11-27T08:12:01.380Z,18.17
2022-11-27T08:14:27.774Z,18.02
2022-11-27T08:16:54.217Z,16.50
2022-11-27T08:19:20.672Z,17.50
2022-11-27T08:21:47.055Z,16.05
2022-11-27T08:24:13.416Z,16.08
2022-11-27T08:26:39.967Z,17.77
2022-11-27T08:29:06.377Z,16.75
2022-11-27T08:31:33.652Z,16.50
2022-11-27T08:34:00.138Z,15.95
2022-11-27T08:36:26.558Z,16.50
2022-11-27T08:38:54.768Z,16.30
2022-11-27T08:41:21.786Z,15.90
2022-11-27T08:43:48.132Z,14.93
2022-11-27T08:46:14.904Z,15.05
2022-11-27T08:48:41.398Z,14.85
2022-11-27T08:51:10.180Z,13.77
2022-11-27T08:53:36.959Z,14.13
2022-11-27T08:56:07.267Z,14.38
2022-11-27T08:58:33.694Z,13.52
2022-11-27T09:01:07.478Z,12.75
2022-11-27T09:03:33.977Z,13.38
2022-11-27T09:06:00.376Z,12.55
2022-11-27T09:08:26.914Z,12.07
2022-11-27T09:10:53.308Z,12.68
2022-11-27T09:13:19.664Z,13.27
2022-11-27T09:15:46.179Z,12.23
2022-11-27T09:18:12.580Z,12.63
2022-11-27T09:20:38.969Z,12.32
2022-11-27T09:23:07.925Z,11.75
2022-11-27T09:25:38.993Z,11.43
2022-11-27T09:28:05.350Z,11.38
2022-11-27T09:30:31.718Z,10.93
2022-11-27T09:32:58.078Z,12.15
2022-11-27T09:35:24.511Z,12.35
2022-11-27T09:37:50.879Z,11.82
2022-11-27T09:40:17.569Z,11.85
2022-11-27T09:43:02.822Z,10.80
2022-11-27T09:48:04.420Z,10.43
2022-11-27T09:53:19.743Z,11.00
2022-11-27T09:55:49.390Z,11.32
2022-11-27T09:58:35.240Z,10.75
2022-11-27T10:01:01.756Z,10.32
2022-11-27T10:03:28.350Z,10.75
2022-11-27T10:06:19.199Z,10.05
2022-11-27T10:09:09.105Z,10.90
2022-11-27T10:11:35.566Z,10.15
2022-11-27T10:14:27.390Z,9.90
2022-11-27T10:17:02.723Z,9.95
2022-11-27T10:19:50.756Z,9.82
2022-11-27T10:22:38.527Z,9.65
2022-11-27T10:25:33.381Z,9.57
2022-11-27T10:28:06.297Z,9.95
2022-11-27T10:30:44.532Z,9.63
2022-11-27T10:33:20.000Z,10.15
2022-11-27T10:35:49.030Z,9.20
2022-11-27T10:38:22.599Z,9.52
2022-11-27T10:40:57.075Z,10.32
2022-11-27T10:43:25.309Z,9.48
2022-11-27T10:45:57.325Z,10.43
2022-11-27T10:48:24.122Z,9.20
2022-11-27T10:50:51.345Z,9.30
2022-11-27T10:53:30.552Z,9.35
2022-11-27T10:56:12.028Z,10.30
2022-11-27T10:58:59.473Z,8.32
2022-11-27T11:01:28.542Z,9.60
2022-11-27T11:04:35.812Z,8.43
2022-11-27T11:06:59.173Z,9.30
2022-11-27T11:09:33.482Z,8.93
2022-11-27T11:12:15.478Z,8.05
2022-11-27T11:14:50.825Z,8.70
2022-11-27T11:17:17.627Z,8.55
2022-11-27T11:19:44.634Z,8.10
2022-11-27T11:22:17.932Z,8.32
2022-11-27T11:24:49.742Z,7.97
2022-11-27T11:27:19.531Z,7.90
2022-11-27T11:29:45.857Z,8.02
2022-11-27T11:32:33.334Z,7.88
2022-11-27T11:35:03.139Z,7.40
2022-11-27T11:37:34.612Z,7.25
2022-11-27T11:40:08.978Z,7.38
2022-11-27T11:42:48.826Z,7.90
2022-11-27T11:45:19.997Z,8.80
2022-11-27T11:47:49.066Z,8.02
2022-11-27T11:50:22.127Z,7.97
2022-11-27T11:52:51.228Z,8.30
2022-11-27T11:55:30.936Z,8.15
2022-11-27T11:58:06.148Z,8.35
2022-11-27T12:01:26.518Z,8.60
2022-11-27T12:04:30.894Z,8.70
2022-11-27T12:07:09.282Z,8.57
2022-11-27T12:09:54.242Z,8.43
2022-11-27T12:12:44.342Z,8.52
2022-11-27T12:15:30.751Z,8.55
2022-11-27T12:18:21.598Z,7.88
2022-11-27T12:21:11.076Z,9.23
2022-11-27T12:23:53.445Z,9.85
2022-11-27T12:26:19.734Z,9.05
2022-11-27T12:29:16.860Z,8.77
2022-11-27T12:31:50.730Z,9.13
2022-11-27T12:34:38.637Z,8.27
2022-11-27T12:37:13.598Z,9.20
2022-11-27T12:40:15.606Z,8.68
2022-11-27T12:43:02.832Z,8.63
2022-11-27T12:45:36.848Z,8.07
2022-11-27T12:48:14.622Z,7.80
2022-11-27T12:50:50.174Z,8.00
2022-11-27T12:53:24.531Z,8.30
2022-11-27T12:56:03.470Z,8.00
2022-11-27T12:58:37.849Z,8.07
2022-11-27T13:01:11.325Z,7.47
2022-11-27T13:03:55.972Z,7.38
2022-11-27T13:06:26.430Z,7.70
2022-11-27T13:09:01.747Z,7.47
2022-11-27T13:11:37.869Z,7.28
2022-11-27T13:14:15.512Z,6.88
2022-11-27T13:16:46.174Z,6.95
2022-11-27T13:19:30.946Z,7.53
2022-11-27T13:21:59.083Z,6.97
2022-11-27T13:24:28.031Z,5.35
2022-11-27T13:26:54.373Z,5.10
2022-11-27T13:29:31.631Z,4.25
2022-11-27T13:32:01.793Z,4.20
2022-11-27T13:34:30.709Z,4.93
2022-11-27T13:37:08.455Z,5.10
2022-11-27T13:39:36.701Z,4.60
2022-11-27T13:42:19.894Z,4.13
2022-11-27T13:44:56.128Z,4.65
2022-11-27T13:47:25.092Z,3.75
2022-11-27T13:50:04.074Z,4.40
2022-11-27T13:52:30.861Z,5.30
2022-11-27T13:55:03.535Z,4.03
2022-11-27T13:57:30.654Z,3.85
2022-11-27T14:00:07.641Z,4.38
2022-11-27T14:02:48.003Z,4.22
2022-11-27T14:05:18.321Z,4.68
2022-11-27T14:07:48.150Z,4.63
2022-11-27T14:10:29.471Z,4.80
2022-11-27T14:13:08.371Z,4.30
2022-11-27T14:15:36.898Z,4.30
2022-11-27T14:18:08.194Z,4.40
2022-11-27T14:20:44.995Z,4.55
2022-11-27T14:23:13.082Z,4.20
2022-11-27T14:25:40.623Z,4.75
2022-11-27T14:28:06.872Z,5.03
2022-11-27T14:30:39.694Z,5.05
2022-11-27T14:33:17.343Z,5.07
2022-11-27T14:35:52.102Z,4.15
2022-11-27T14:38:19.074Z,4.70
2022-11-27T14:40:46.156Z,4.60
2022-11-27T14:43:19.207Z,4.68
2022-11-27T14:45:48.772Z,5.30
2022-11-27T14:48:26.461Z,4.82
2022-11-27T14:50:55.772Z,4.63
2022-11-27T14:53:26.017Z,4.95
2022-11-27T14:55:56.096Z,5.03
2022-11-27T14:58:25.765Z,4.80
2022-11-27T15:01:04.363Z,4.63
2022-11-27T15:03:31.608Z,5.15
2022-11-27T15:06:03.845Z,5.03
2022-11-27T15:08:34.977Z,5.18
2022-11-27T15:11:03.338Z,4.70
2022-11-27T15:13:33.169Z,4.85
2022-11-27T15:16:21.807Z,4.97
2022-11-27T15:18:53.405Z,4.80
2022-11-27T15:21:22.570Z,4.75
2022-11-27T15:23:50.082Z,5.13
2022-11-27T15:26:31.209Z,4.60
2022-11-27T15:28:57.572Z,5.30
2022-11-27T15:31:38.612Z,5.25
2022-11-27T15:34:21.015Z,4.43
2022-11-27T15:36:57.244Z,4.57
2022-11-27T15:39:26.853Z,5.10
2022-11-27T15:41:58.614Z,5.20
2022-11-27T15:44:26.650Z,4.80
2022-11-27T15:46:55.494Z,4.72
2022-11-27T15:49:22.188Z,4.70
2022-11-27T15:51:48.569Z,4.82
2022-11-27T15:54:15.128Z,4.47
2022-11-27T15:56:42.081Z,4.93
2022-11-27T15:59:09.759Z,4.38
2022-11-27T16:01:37.592Z,4.20
2022-11-27T16:04:04.222Z,3.80
2022-11-27T16:06:30.520Z,3.92
2022-11-27T16:08:58.294Z,4.32
2022-11-27T16:11:26.022Z,4.07
2022-11-27T16:13:52.615Z,4.50
2022-11-27T16:16:19.432Z,4.05
2022-11-27T16:18:46.167Z,3.83
2022-11-27T16:21:15.276Z,4.00
2022-11-27T16:23:41.848Z,3.67
2022-11-27T16:26:10.393Z,3.95
2022-11-27T16:28:36.911Z,4.03
2022-11-27T16:31:08.652Z,3.88
2022-11-27T16:33:35.070Z,3.65
2022-11-27T16:36:27.945Z,3.30
2022-11-27T16:38:55.034Z,3.53
2022-11-27T16:41:22.421Z,3.53
2022-11-27T16:43:51.718Z,4.10
2022-11-27T16:46:19.507Z,3.92
2022-11-27T16:48:47.119Z,3.65
2022-11-27T16:51:19.593Z,3.95
2022-11-27T16:53:47.815Z,3.58
2022-11-27T16:56:16.849Z,3.53
2022-11-27T16:58:44.746Z,3.42
2022-11-27T17:01:16.690Z,3.17
2022-11-27T17:03:43.663Z,3.60
2022-11-27T17:06:12.112Z,3.40
2022-11-27T17:08:39.138Z,3.72
2022-11-27T17:11:13.688Z,3.42
2022-11-27T17:13:40.643Z,4.13
2022-11-27T17:16:07.844Z,3.92
2022-11-27T17:18:37.007Z,3.78
2022-11-27T17:21:06.517Z,4.22
2022-11-27T17:23:32.829Z,3.33
2022-11-27T17:26:05.364Z,3.65
2022-11-27T17:28:31.681Z,3.50
2022-11-27T17:30:58.046Z,4.05
2022-11-27T17:33:24.369Z,3.60
2022-11-27T17:35:50.685Z,3.47
2022-11-27T17:38:17.439Z,4.00
2022-11-27T17:40:43.777Z,3.55
2022-11-27T17:43:10.149Z,4.30
2022-11-27T17:45:40.888Z,3.70
2022-11-27T17:48:07.737Z,3.85
2022-11-27T17:50:34.261Z,4.25
2022-11-27T17:53:00.794Z,4.63
2022-11-27T17:55:27.181Z,4.20
2022-11-27T17:57:53.534Z,4.30
2022-11-27T18:00:19.854Z,4.72
2022-11-27T18:02:46.241Z,4.50
2022-11-27T18:05:12.597Z,3.60
2022-11-27T18:07:38.999Z,3.75
2022-11-27T18:10:06.100Z,3.83
2022-11-27T18:12:32.439Z,3.70
2022-11-27T18:15:01.251Z,4.20
2022-11-27T18:17:28.480Z,4.22
2022-11-27T18:19:54.803Z,4.35
2022-11-27T18:22:21.121Z,4.47
2022-11-27T18:24:47.490Z,4.40
2022-11-27T18:27:13.833Z,4.13
2022-11-27T18:29:42.789Z,4.25
2022-11-27T18:32:11.219Z,3.85
2022-11-27T18:34:38.176Z,4.32
2022-11-27T18:37:04.617Z,3.97
2022-11-27T18:39:30.957Z,4.50
2022-11-27T18:41:57.317Z,4.07
2022-11-27T18:44:23.718Z,3.67
2022-11-27T18:46:50.138Z,3.70
2022-11-27T18:49:16.462Z,3.60
2022-11-27T18:51:42.759Z,3.85
2022-11-27T18:54:09.088Z,3.80
2022-11-27T18:56:35.421Z,3.58
2022-11-27T18:59:06.279Z,3.97
2022-11-27T19:01:40.910Z,3.90
2022-11-27T19:04:09.361Z,4.30
2022-11-27T19:06:36.481Z,3.42
2022-11-27T19:09:03.147Z,4.10
2022-11-27T19:11:29.509Z,3.78
2022-11-27T19:13:56.732Z,3.15
2022-11-27T19:16:32.024Z,3.42
2022-11-27T19:18:59.467Z,3.70
2022-11-27T19:21:28.185Z,3.33
2022-11-27T19:23:54.849Z,3.38
2022-11-27T19:26:24.452Z,3.65
2022-11-27T19:28:52.678Z,3.40
2022-11-27T19:31:19.778Z,3.75
2022-11-27T19:33:51.849Z,3.88
2022-11-27T19:36:18.577Z,4.20
2022-11-27T19:38:44.885Z,4.57
2022-11-27T19:41:16.813Z,3.80
2022-11-27T19:43:43.812Z,4.95
2022-11-27T19:46:30.606Z,4.40
2022-11-27T19:48:59.594Z,4.60
2022-11-27T19:51:27.636Z,4.50
2022-11-27T19:53:54.782Z,4.60
2022-11-27T19:56:21.094Z,4.05
2022-11-27T19:58:47.417Z,4.57
2022-11-27T20:01:17.183Z,4.40
2022-11-27T20:03:44.746Z,4.40
2022-11-27T20:06:15.084Z,4.13
2022-11-27T20:08:45.240Z,4.32
2022-11-27T20:11:15.263Z,3.75
2022-11-27T20:13:41.913Z,4.28
2022-11-27T20:16:13.497Z,4.40
2022-11-27T20:18:40.701Z,4.22
2022-11-27T20:21:15.205Z,4.57
2022-11-27T20:23:41.974Z,4.68
2022-11-27T20:26:10.632Z,4.07
2022-11-27T20:28:37.725Z,4.03
2022-11-27T20:31:04.209Z,4.22
2022-11-27T20:33:31.655Z,3.75
2022-11-27T20:35:58.367Z,4.10
2022-11-27T20:38:25.115Z,4.32
2022-11-27T20:40:51.454Z,4.50
2022-11-27T20:43:17.761Z,4.25
2022-11-27T20:45:44.255Z,4.43
2022-11-27T20:48:10.759Z,4.90
2022-11-27T20:50:38.622Z,4.18
2022-11-27T20:53:05.706Z,4.32
2022-11-27T20:55:33.726Z,4.47
2022-11-27T20:58:00.105Z,4.40
2022-11-27T21:00:26.508Z,4.47
2022-11-27T21:02:52.815Z,4.40
2022-11-27T21:05:19.154Z,4.70
2022-11-27T21:07:45.603Z,4.70
2022-11-27T21:10:14.707Z,4.55
2022-11-27T21:12:42.776Z,4.97
2022-11-27T21:15:09.874Z,4.57
2022-11-27T21:17:36.562Z,5.65
2022-11-27T21:20:03.097Z,4.72
2022-11-27T21:22:29.896Z,4.75
2022-11-27T21:24:56.230Z,5.07
2022-11-27T21:27:22.780Z,4.80
2022-11-27T21:29:49.100Z,4.70
2022-11-27T21:32:15.498Z,4.57
2022-11-27T21:34:41.967Z,4.72
2022-11-27T21:37:08.554Z,4.82
2022-11-27T21:39:34.863Z,4.82
2022-11-27T21:42:01.215Z,4.82
2022-11-27T21:44:27.553Z,4.68
2022-11-27T21:46:53.901Z,4.50
2022-11-27T21:49:20.929Z,5.00
2022-11-27T21:51:51.274Z,4.80
2022-11-27T21:54:17.679Z,4.60
2022-11-27T21:56:44.105Z,4.75
2022-11-27T21:59:14.300Z,4.22
2022-11-27T22:01:40.726Z,4.88
2022-11-27T22:04:07.171Z,4.88
2022-11-27T22:06:39.203Z,4.95
2022-11-27T22:09:10.503Z,4.45
2022-11-27T22:11:39.940Z,4.78
2022-11-27T22:14:08.244Z,5.32
2022-11-27T22:16:42.753Z,4.03
2022-11-27T22:19:11.001Z,4.50
2022-11-27T22:21:37.411Z,4.47
2022-11-27T22:24:03.987Z,4.43
2022-11-27T22:26:30.317Z,4.90
2022-11-27T22:28:57.110Z,4.75
2022-11-27T22:31:29.210Z,4.63
2022-11-27T22:33:56.669Z,4.85
2022-11-27T22:36:34.166Z,5.35
2022-11-27T22:39:03.121Z,5.07
2022-11-27T22:41:32.908Z,5.32
2022-11-27T22:43:59.990Z,5.35
2022-11-27T22:46:29.358Z,5.60
2022-11-27T22:48:56.722Z,5.53
2022-11-27T22:51:23.089Z,6.03
2022-11-27T22:53:49.475Z,6.43
2022-11-27T22:56:16.257Z,6.57
2022-11-27T22:58:43.091Z,6.03
2022-11-27T23:01:15.218Z,6.47
2022-11-27T23:03:41.652Z,5.57
2022-11-27T23:06:12.341Z,5.57
2022-11-27T23:08:40.921Z,5.53
2022-11-27T23:11:13.588Z,5.78
2022-11-27T23:13:42.781Z,5.40
2022-11-27T23:16:12.091Z,5.85
2022-11-27T23:18:39.037Z,5.95
2022-11-27T23:21:10.596Z,5.75
2022-11-27T23:23:36.959Z,6.80
2022-11-27T23:26:21.323Z,6.38
2022-11-27T23:28:51.897Z,6.40
2022-11-27T23:31:30.004Z,5.57
2022-11-27T23:33:57.283Z,6.15
2022-11-27T23:36:23.639Z,6.07
2022-11-27T23:38:50.006Z,5.72
2022-11-27T23:41:19.841Z,6.20
2022-11-27T23:43:46.754Z,5.80
2022-11-27T23:46:15.061Z,5.97
2022-11-27T23:48:42.305Z,6.18
2022-11-27T23:51:14.172Z,6.22
2022-11-27T23:53:40.608Z,5.80
2022-11-27T23:56:15.765Z,5.53
2022-11-27T23:58:47.011Z,5.20
